Terminal Aerodrome Forecast
Issued by NWS Sterling, VA

Current Version | Previous Version | Text Only | Print | Product List | Glossary Off
Versions: 1 2 3 4 5 6 7 8 9 10 11 12 13 14 15 16

000
FTUS41 KLWX 141127
TAFMRB
TAF
KMRB 141127Z 1412/1512 11004KT 3SM -FZRAPL OVC035
     FM141500 13005KT 3SM -FZRAPL OVC012
     FM142100 13004KT 3SM -FZRA OVC008
     FM150000 00000KT P6SM OVC008
     FM150600 00000KT P6SM OVC030=

USA.gov is the U.S. government's official web portal to all federal, state and local government web resources and services.